createdAt,value
2018-08-13T00:01:26.606Z,17.40
2018-08-13T00:03:54.667Z,17.30
2018-08-13T00:06:22.804Z,17.30
2018-08-13T00:08:50.852Z,17.40
2018-08-13T00:11:18.900Z,17.50
2018-08-13T00:13:46.949Z,17.50
2018-08-13T00:16:14.996Z,17.60
2018-08-13T00:18:43.036Z,17.60
2018-08-13T00:21:11.099Z,17.70
2018-08-13T00:23:39.165Z,17.70
2018-08-13T00:26:07.215Z,17.70
2018-08-13T00:28:35.268Z,17.80
2018-08-13T00:31:03.326Z,17.70
2018-08-13T00:33:31.372Z,17.60
2018-08-13T00:35:59.435Z,17.60
2018-08-13T00:38:27.471Z,17.50
2018-08-13T00:40:55.520Z,17.40
2018-08-13T00:43:23.561Z,17.30
2018-08-13T00:45:51.632Z,17.30
2018-08-13T00:48:19.680Z,17.20
2018-08-13T00:50:47.728Z,17.10
2018-08-13T00:53:15.782Z,17.00
2018-08-13T00:55:43.841Z,17.00
2018-08-13T00:58:11.969Z,16.90
2018-08-13T01:00:40.025Z,17.00
2018-08-13T01:03:08.143Z,17.00
2018-08-13T01:05:36.200Z,17.20
2018-08-13T01:08:04.264Z,17.40
2018-08-13T01:10:32.456Z,17.50
2018-08-13T01:13:00.508Z,17.60
2018-08-13T01:15:28.567Z,17.70
2018-08-13T01:17:56.608Z,17.70
2018-08-13T01:20:24.652Z,17.80
2018-08-13T01:22:52.780Z,17.80
2018-08-13T01:25:21.372Z,17.80
2018-08-13T01:27:49.420Z,17.80
2018-08-13T01:30:18.528Z,17.80
2018-08-13T01:32:46.595Z,17.80
2018-08-13T01:35:14.646Z,17.80
2018-08-13T01:37:42.692Z,17.80
2018-08-13T01:40:11.420Z,17.80
2018-08-13T01:42:39.484Z,17.70
2018-08-13T01:45:08.974Z,17.70
2018-08-13T01:47:37.149Z,17.70
2018-08-13T01:50:06.974Z,17.60
2018-08-13T01:52:35.025Z,17.70
2018-08-13T01:55:03.122Z,17.60
2018-08-13T01:57:31.176Z,17.60
2018-08-13T01:59:59.256Z,17.60
2018-08-13T02:02:27.293Z,17.60
2018-08-13T02:04:55.336Z,17.60
2018-08-13T02:07:23.451Z,17.60
2018-08-13T02:09:51.595Z,17.50
2018-08-13T02:12:19.697Z,17.50
2018-08-13T02:14:47.775Z,17.50
2018-08-13T02:17:15.821Z,17.50
2018-08-13T02:19:43.910Z,17.50
2018-08-13T02:22:11.959Z,17.50
2018-08-13T02:24:40.058Z,17.50
2018-08-13T02:27:08.139Z,17.50
2018-08-13T02:29:36.184Z,17.40
2018-08-13T02:32:04.261Z,17.40
2018-08-13T02:34:32.300Z,17.40
2018-08-13T02:37:00.343Z,17.30
2018-08-13T02:39:28.379Z,17.10
2018-08-13T02:41:56.410Z,17.00
2018-08-13T02:44:24.455Z,16.90
2018-08-13T02:46:52.590Z,16.90
2018-08-13T02:49:20.616Z,16.80
2018-08-13T02:51:48.653Z,16.90
2018-08-13T02:54:16.682Z,16.90
2018-08-13T02:56:44.727Z,17.00
2018-08-13T02:59:12.753Z,17.10
2018-08-13T03:01:41.465Z,17.10
2018-08-13T03:04:09.600Z,17.10
2018-08-13T03:06:37.677Z,17.20
2018-08-13T03:09:08.731Z,17.20
2018-08-13T03:11:36.787Z,17.20
2018-08-13T03:14:05.384Z,17.20
2018-08-13T03:16:33.429Z,17.20
2018-08-13T03:19:01.473Z,17.30
2018-08-13T03:21:29.516Z,17.30
2018-08-13T03:23:57.538Z,17.30
2018-08-13T03:26:25.575Z,17.30
2018-08-13T03:28:53.679Z,17.30
2018-08-13T03:31:21.714Z,17.30
2018-08-13T03:33:49.825Z,17.30
2018-08-13T03:36:17.885Z,17.30
2018-08-13T03:38:45.918Z,17.30
2018-08-13T03:41:13.968Z,17.20
2018-08-13T03:43:41.995Z,17.10
2018-08-13T03:46:10.046Z,17.10
2018-08-13T03:48:38.065Z,16.90
2018-08-13T03:51:06.095Z,16.80
2018-08-13T03:53:34.126Z,16.70
2018-08-13T03:56:02.199Z,16.60
2018-08-13T03:58:30.334Z,16.50
2018-08-13T04:00:58.380Z,16.50
2018-08-13T04:03:26.423Z,16.40
2018-08-13T04:05:54.545Z,16.40
2018-08-13T04:08:22.586Z,16.40
2018-08-13T04:10:50.635Z,16.40
2018-08-13T04:13:18.665Z,16.40
2018-08-13T04:15:46.707Z,16.50
2018-08-13T04:18:14.749Z,16.50
2018-08-13T04:20:42.803Z,16.60
2018-08-13T04:23:10.834Z,16.70
2018-08-13T04:25:38.893Z,16.80
2018-08-13T04:28:06.938Z,17.10
2018-08-13T04:30:35.043Z,17.30
2018-08-13T04:33:03.109Z,17.50
2018-08-13T04:35:31.168Z,17.60
2018-08-13T04:37:59.201Z,17.80
2018-08-13T04:40:27.230Z,18.10
2018-08-13T04:42:55.280Z,18.30
2018-08-13T04:45:23.447Z,18.60
2018-08-13T04:47:53.489Z,19.00
2018-08-13T04:50:21.648Z,19.50
2018-08-13T04:52:50.061Z,19.90
2018-08-13T04:55:18.709Z,20.20
2018-08-13T04:57:46.775Z,20.50
2018-08-13T05:00:14.817Z,20.70
2018-08-13T05:02:42.863Z,20.90
2018-08-13T05:05:11.717Z,21.20
2018-08-13T05:07:39.896Z,21.60
2018-08-13T05:10:09.188Z,22.00
2018-08-13T05:12:37.251Z,22.40
2018-08-13T05:15:06.147Z,22.80
2018-08-13T05:17:34.318Z,23.20
2018-08-13T05:20:02.353Z,23.60
2018-08-13T05:22:30.410Z,24.10
2018-08-13T05:24:58.436Z,24.50
2018-08-13T05:27:26.470Z,24.90
2018-08-13T05:29:54.525Z,24.90
2018-08-13T05:32:22.546Z,25.10
2018-08-13T05:34:50.583Z,25.40
2018-08-13T05:37:18.627Z,25.70
2018-08-13T05:39:46.667Z,26.00
2018-08-13T05:42:14.757Z,25.80
2018-08-13T05:44:42.899Z,25.80
2018-08-13T05:47:11.013Z,25.90
2018-08-13T05:49:39.041Z,26.30
2018-08-13T05:52:07.114Z,26.70
2018-08-13T05:54:35.149Z,26.90
2018-08-13T05:57:03.188Z,27.30
2018-08-13T05:59:31.233Z,27.90
2018-08-13T06:01:59.280Z,28.50
2018-08-13T06:04:27.349Z,29.10
2018-08-13T06:06:55.382Z,29.80
2018-08-13T06:09:23.507Z,29.70
2018-08-13T06:11:51.531Z,29.90
2018-08-13T06:14:19.581Z,30.10
2018-08-13T06:16:47.620Z,31.20
2018-08-13T06:19:15.657Z,32.50
2018-08-13T06:21:43.719Z,33.10
2018-08-13T06:24:11.772Z,32.80
2018-08-13T06:26:39.881Z,32.70
2018-08-13T06:29:08.067Z,33.00
2018-08-13T06:31:36.104Z,33.10
2018-08-13T06:34:04.220Z,33.80
2018-08-13T06:36:32.246Z,34.10
2018-08-13T06:39:00.288Z,33.80
2018-08-13T06:41:28.367Z,33.30
2018-08-13T06:43:56.479Z,32.60
2018-08-13T06:46:24.566Z,32.40
2018-08-13T06:48:52.589Z,32.40
2018-08-13T06:51:20.693Z,31.70
2018-08-13T06:53:48.776Z,31.00
2018-08-13T06:56:16.820Z,30.80
2018-08-13T06:58:44.841Z,31.10
2018-08-13T07:01:12.901Z,31.20
2018-08-13T07:03:40.951Z,30.90
2018-08-13T07:06:08.991Z,30.60
2018-08-13T07:08:37.081Z,30.40
2018-08-13T07:11:09.965Z,30.80
2018-08-13T07:13:38.037Z,31.40
2018-08-13T07:16:06.146Z,32.10
2018-08-13T07:18:34.187Z,32.20
2018-08-13T07:21:02.223Z,32.20
2018-08-13T07:23:30.262Z,32.40
2018-08-13T07:25:58.295Z,32.40
2018-08-13T07:28:26.354Z,32.20
2018-08-13T07:30:54.445Z,31.90
2018-08-13T07:33:22.609Z,31.70
2018-08-13T07:35:50.603Z,31.60
2018-08-13T07:38:18.637Z,31.80
2018-08-13T07:40:46.675Z,32.20
2018-08-13T07:43:14.899Z,32.60
2018-08-13T07:45:42.988Z,33.20
2018-08-13T07:48:10.999Z,33.50
2018-08-13T07:50:39.044Z,33.20
2018-08-13T07:53:07.194Z,32.80
2018-08-13T07:55:35.225Z,32.60
2018-08-13T07:58:03.262Z,32.50
2018-08-13T08:00:31.377Z,32.30
2018-08-13T08:02:59.464Z,31.90
2018-08-13T08:05:27.503Z,31.80
2018-08-13T08:07:55.555Z,31.60
2018-08-13T08:10:23.578Z,31.70
2018-08-13T08:12:51.615Z,32.00
2018-08-13T08:15:20.127Z,32.50
2018-08-13T08:17:48.157Z,33.20
2018-08-13T08:20:16.196Z,33.90
2018-08-13T08:22:44.229Z,34.10
2018-08-13T08:25:15.775Z,33.60
2018-08-13T08:27:44.260Z,33.00
2018-08-13T08:30:12.633Z,32.40
2018-08-13T08:32:40.676Z,32.40
2018-08-13T08:35:10.731Z,32.80
2018-08-13T08:37:39.113Z,33.50
2018-08-13T08:40:09.033Z,33.90
2018-08-13T08:42:37.281Z,33.70
2018-08-13T08:45:08.054Z,33.20
2018-08-13T08:47:36.205Z,32.70
2018-08-13T08:50:04.737Z,32.10
2018-08-13T08:52:32.813Z,31.70
2018-08-13T08:55:00.923Z,31.50
2018-08-13T08:57:29.092Z,31.30
2018-08-13T08:59:57.133Z,30.70
2018-08-13T09:02:25.157Z,30.30
2018-08-13T09:04:53.206Z,30.00
2018-08-13T09:07:21.235Z,30.10
2018-08-13T09:09:49.283Z,30.40
2018-08-13T09:12:17.321Z,30.40
2018-08-13T09:14:45.387Z,31.00
2018-08-13T09:17:13.464Z,32.40
2018-08-13T09:19:52.975Z,33.50
2018-08-13T09:22:32.629Z,34.20
2018-08-13T09:25:12.361Z,34.20
2018-08-13T09:27:51.861Z,33.90
2018-08-13T09:31:33.547Z,33.50
2018-08-13T09:34:15.413Z,32.60
2018-08-13T09:36:43.591Z,32.10
2018-08-13T09:39:11.662Z,31.50
2018-08-13T09:41:39.934Z,31.20
2018-08-13T09:44:07.993Z,31.20
2018-08-13T09:46:36.039Z,31.20
2018-08-13T09:49:04.340Z,31.30
2018-08-13T09:51:32.414Z,31.30
2018-08-13T09:54:00.493Z,31.10
2018-08-13T09:56:28.542Z,30.70
2018-08-13T09:58:56.572Z,30.30
2018-08-13T10:01:24.703Z,29.80
2018-08-13T10:03:52.726Z,29.30
2018-08-13T10:06:20.746Z,29.10
2018-08-13T10:08:48.789Z,29.00
2018-08-13T10:11:16.846Z,28.70
2018-08-13T10:13:44.879Z,28.40
2018-08-13T10:16:12.931Z,28.20
2018-08-13T10:18:40.997Z,28.10
2018-08-13T10:21:09.021Z,28.10
2018-08-13T10:23:37.062Z,28.10
2018-08-13T10:26:05.097Z,28.10
2018-08-13T10:28:33.132Z,27.90
2018-08-13T10:31:01.180Z,27.60
2018-08-13T10:33:29.201Z,27.30
2018-08-13T10:35:57.238Z,27.00
2018-08-13T10:38:25.353Z,26.80
2018-08-13T10:40:53.406Z,26.40
2018-08-13T10:43:21.620Z,26.20
2018-08-13T10:45:49.666Z,26.10
2018-08-13T10:48:17.693Z,25.90
2018-08-13T10:50:45.917Z,25.80
2018-08-13T10:53:13.937Z,25.70
2018-08-13T10:55:41.999Z,25.60
2018-08-13T10:58:10.048Z,25.50
2018-08-13T11:00:38.096Z,25.50
2018-08-13T11:03:06.153Z,25.50
2018-08-13T11:05:34.198Z,25.40
2018-08-13T11:08:02.341Z,25.40
2018-08-13T11:10:30.474Z,25.50
2018-08-13T11:12:58.604Z,25.50
2018-08-13T11:15:26.639Z,25.50
2018-08-13T11:17:54.669Z,25.50
2018-08-13T11:20:22.713Z,25.50
2018-08-13T11:22:50.836Z,25.50
2018-08-13T11:25:18.925Z,25.40
2018-08-13T11:27:46.912Z,25.40
2018-08-13T11:30:16.170Z,25.40
2018-08-13T11:32:44.338Z,25.40
2018-08-13T11:35:13.176Z,25.50
2018-08-13T11:37:41.302Z,25.50
2018-08-13T11:40:13.781Z,25.30
2018-08-13T11:42:41.987Z,25.20
2018-08-13T11:45:10.236Z,25.00
2018-08-13T11:47:39.027Z,24.90
2018-08-13T11:50:13.333Z,24.70
2018-08-13T11:52:41.602Z,24.50
2018-08-13T11:55:09.686Z,24.20
2018-08-13T11:57:37.766Z,24.00
2018-08-13T12:00:07.947Z,23.70
2018-08-13T12:02:36.238Z,23.40
2018-08-13T12:05:05.939Z,23.20
2018-08-13T12:07:33.978Z,23.00
2018-08-13T12:10:02.082Z,22.90
2018-08-13T12:12:30.161Z,22.70
2018-08-13T12:14:58.191Z,22.50
2018-08-13T12:17:26.248Z,22.40
2018-08-13T12:19:54.373Z,22.30
2018-08-13T12:22:22.401Z,22.20
2018-08-13T12:24:50.519Z,22.10
2018-08-13T12:27:18.564Z,22.00
2018-08-13T12:29:46.626Z,22.00
2018-08-13T12:32:14.947Z,22.00
2018-08-13T12:34:42.974Z,22.10
2018-08-13T12:37:11.039Z,22.10
2018-08-13T12:39:39.771Z,22.10
2018-08-13T12:42:08.859Z,22.30
2018-08-13T12:44:37.125Z,22.20
2018-08-13T12:47:06.275Z,22.20
2018-08-13T12:49:34.302Z,22.20
2018-08-13T12:52:02.347Z,22.30
2018-08-13T12:54:30.397Z,22.30
2018-08-13T12:56:58.544Z,22.40
2018-08-13T12:59:26.574Z,22.50
2018-08-13T13:01:54.623Z,22.50
2018-08-13T13:04:22.663Z,22.70
2018-08-13T13:06:50.693Z,22.90
2018-08-13T13:09:18.757Z,23.00
2018-08-13T13:11:47.216Z,23.00
2018-08-13T13:14:15.252Z,23.00
2018-08-13T13:16:43.291Z,23.10
2018-08-13T13:19:11.337Z,23.10
2018-08-13T13:21:39.418Z,23.00
2018-08-13T13:24:07.463Z,23.00
2018-08-13T13:26:35.937Z,22.90
2018-08-13T13:29:04.404Z,22.90
2018-08-13T13:31:32.474Z,22.90
2018-08-13T13:34:00.531Z,22.90
2018-08-13T13:36:28.554Z,23.00
2018-08-13T13:38:56.740Z,22.90
2018-08-13T13:41:24.762Z,22.90
2018-08-13T13:43:52.790Z,22.70
2018-08-13T13:46:20.860Z,22.60
2018-08-13T13:48:48.885Z,22.60
2018-08-13T13:51:17.522Z,22.60
2018-08-13T13:53:45.559Z,22.60
2018-08-13T13:56:13.624Z,22.70
2018-08-13T13:58:41.694Z,22.70
2018-08-13T14:01:09.734Z,22.60
2018-08-13T14:03:37.772Z,22.60
2018-08-13T14:06:05.833Z,22.70
2018-08-13T14:08:33.901Z,22.70
2018-08-13T14:11:01.958Z,22.80
2018-08-13T14:13:30.038Z,22.80
2018-08-13T14:15:58.109Z,22.70
2018-08-13T14:18:26.170Z,22.70
2018-08-13T14:20:54.209Z,22.60
2018-08-13T14:23:22.267Z,22.60
2018-08-13T14:25:50.290Z,22.60
2018-08-13T14:28:18.309Z,22.70
2018-08-13T14:30:46.359Z,22.80
2018-08-13T14:33:14.395Z,22.80
2018-08-13T14:35:42.465Z,22.90
2018-08-13T14:38:10.507Z,23.10
2018-08-13T14:40:38.531Z,23.50
2018-08-13T14:43:06.568Z,23.70
2018-08-13T14:45:34.613Z,23.80
2018-08-13T14:48:02.727Z,23.80
2018-08-13T14:50:30.750Z,23.80
2018-08-13T14:52:58.864Z,23.70
2018-08-13T14:55:26.914Z,23.60
2018-08-13T14:57:54.964Z,23.50
2018-08-13T15:00:26.441Z,23.40
2018-08-13T15:02:55.246Z,23.20
2018-08-13T15:05:23.277Z,23.20
2018-08-13T15:07:51.534Z,23.30
2018-08-13T15:10:24.599Z,23.30
2018-08-13T15:12:52.724Z,23.50
2018-08-13T15:15:20.703Z,23.60
2018-08-13T15:17:49.149Z,23.90
2018-08-13T15:20:18.816Z,24.00
2018-08-13T15:22:46.855Z,24.10
2018-08-13T15:25:14.897Z,24.30
2018-08-13T15:27:43.180Z,24.40
2018-08-13T15:30:13.437Z,24.50
2018-08-13T15:32:41.924Z,24.50
2018-08-13T15:35:09.938Z,24.70
2018-08-13T15:37:38.060Z,24.80
2018-08-13T15:40:07.044Z,24.90
2018-08-13T15:42:35.435Z,25.00
2018-08-13T15:45:03.886Z,24.90
2018-08-13T15:47:31.918Z,25.00
2018-08-13T15:49:59.952Z,25.10
2018-08-13T15:52:27.995Z,25.10
2018-08-13T15:54:56.019Z,25.00
2018-08-13T15:57:24.126Z,24.80
2018-08-13T15:59:52.154Z,24.70
2018-08-13T16:02:20.179Z,24.60
2018-08-13T16:04:48.205Z,24.50
2018-08-13T16:07:16.331Z,24.50
2018-08-13T16:09:44.401Z,24.40
2018-08-13T16:12:12.436Z,24.50
2018-08-13T16:14:40.447Z,24.60
2018-08-13T16:17:08.627Z,24.70
2018-08-13T16:19:36.657Z,24.60
2018-08-13T16:22:05.269Z,24.30
2018-08-13T16:24:33.750Z,24.20
2018-08-13T16:27:01.928Z,24.10
2018-08-13T16:29:29.981Z,24.10
2018-08-13T16:31:58.157Z,24.00
2018-08-13T16:34:26.217Z,24.00
2018-08-13T16:36:54.310Z,24.20
2018-08-13T16:39:22.381Z,24.30
2018-08-13T16:41:50.445Z,24.30
2018-08-13T16:44:18.485Z,24.30
2018-08-13T16:46:46.606Z,24.30
2018-08-13T16:49:14.644Z,24.20
2018-08-13T16:51:42.671Z,24.20
2018-08-13T16:54:10.757Z,24.10
2018-08-13T16:56:38.806Z,23.90
2018-08-13T16:59:06.803Z,23.80
2018-08-13T17:01:34.820Z,23.60
2018-08-13T17:04:02.867Z,23.40
2018-08-13T17:06:30.904Z,23.10
2018-08-13T17:08:58.936Z,22.90
2018-08-13T17:11:31.223Z,22.80
2018-08-13T17:13:59.329Z,22.70
2018-08-13T17:16:27.293Z,22.50
2018-08-13T17:18:55.419Z,22.50
2018-08-13T17:21:23.479Z,22.50
2018-08-13T17:23:51.542Z,22.40
2018-08-13T17:26:19.565Z,22.30
2018-08-13T17:28:47.696Z,22.30
2018-08-13T17:31:15.702Z,22.20
2018-08-13T17:33:43.837Z,22.10
2018-08-13T17:36:11.851Z,22.10
2018-08-13T17:38:39.907Z,22.00
2018-08-13T17:41:08.305Z,21.90
2018-08-13T17:43:36.479Z,21.80
2018-08-13T17:46:04.595Z,21.80
2018-08-13T17:48:32.643Z,21.70
2018-08-13T17:51:00.661Z,21.70
2018-08-13T17:53:28.690Z,21.70
2018-08-13T17:55:57.066Z,21.70
2018-08-13T17:58:25.143Z,21.70
2018-08-13T18:00:53.170Z,21.60
2018-08-13T18:03:21.217Z,21.60
2018-08-13T18:05:49.239Z,21.60
2018-08-13T18:08:17.379Z,21.50
2018-08-13T18:10:45.497Z,21.50
2018-08-13T18:13:13.565Z,21.50
2018-08-13T18:15:41.603Z,21.40
2018-08-13T18:18:09.696Z,21.40
2018-08-13T18:20:37.739Z,21.40
2018-08-13T18:23:05.795Z,21.40
2018-08-13T18:25:33.830Z,21.40
2018-08-13T18:28:01.893Z,21.40
2018-08-13T18:30:30.115Z,21.30
2018-08-13T18:32:58.129Z,21.30
2018-08-13T18:35:26.207Z,21.30
2018-08-13T18:37:54.237Z,21.30
2018-08-13T18:40:25.527Z,21.30
2018-08-13T18:42:53.554Z,21.30
2018-08-13T18:45:21.601Z,21.40
2018-08-13T18:47:50.021Z,21.30
2018-08-13T18:50:19.275Z,21.30
2018-08-13T18:52:47.411Z,21.30
2018-08-13T18:55:16.767Z,21.30
2018-08-13T18:57:45.182Z,21.20
2018-08-13T19:00:16.691Z,21.20
2018-08-13T19:02:44.808Z,21.10
2018-08-13T19:05:14.230Z,21.10
2018-08-13T19:07:43.155Z,21.00
2018-08-13T19:10:12.714Z,21.00
2018-08-13T19:12:40.893Z,20.90
2018-08-13T19:15:14.315Z,20.90
2018-08-13T19:17:42.346Z,20.80
2018-08-13T19:20:11.876Z,20.80
2018-08-13T19:22:40.038Z,20.70
2018-08-13T19:25:11.502Z,20.60
2018-08-13T19:27:39.619Z,20.50
2018-08-13T19:30:08.724Z,20.50
2018-08-13T19:32:37.166Z,20.50
2018-08-13T19:35:06.352Z,20.40
2018-08-13T19:37:34.419Z,20.30
2018-08-13T19:40:02.476Z,20.20
2018-08-13T19:42:30.505Z,20.10
2018-08-13T19:44:58.564Z,20.10
2018-08-13T19:47:26.595Z,20.10
2018-08-13T19:49:54.690Z,20.00
2018-08-13T19:52:22.712Z,19.90
2018-08-13T19:54:50.815Z,19.80
2018-08-13T19:57:18.862Z,19.80
2018-08-13T19:59:46.911Z,19.70
2018-08-13T20:02:14.944Z,19.70
2018-08-13T20:04:42.983Z,19.60
2018-08-13T20:07:11.033Z,19.60
2018-08-13T20:09:39.105Z,19.50
2018-08-13T20:12:07.137Z,19.50
2018-08-13T20:14:35.175Z,19.50
2018-08-13T20:17:03.206Z,19.50
2018-08-13T20:19:31.314Z,19.40
2018-08-13T20:21:59.322Z,19.40
2018-08-13T20:24:27.363Z,19.30
2018-08-13T20:26:55.398Z,19.20
2018-08-13T20:29:23.481Z,19.10
2018-08-13T20:31:51.521Z,19.10
2018-08-13T20:34:19.550Z,19.10
2018-08-13T20:36:47.586Z,18.90
2018-08-13T20:39:16.065Z,18.90
2018-08-13T20:41:44.107Z,18.90
2018-08-13T20:44:12.422Z,18.80
2018-08-13T20:46:41.307Z,18.80
2018-08-13T20:49:10.409Z,18.80
2018-08-13T20:51:38.463Z,18.80
2018-08-13T20:54:07.073Z,18.70
2018-08-13T20:56:35.231Z,18.70
2018-08-13T20:59:03.495Z,18.70
2018-08-13T21:01:31.995Z,18.70
2018-08-13T21:04:00.019Z,18.60
2018-08-13T21:06:28.055Z,18.70
2018-08-13T21:08:56.158Z,18.60
2018-08-13T21:11:24.167Z,18.60
2018-08-13T21:13:52.204Z,18.50
2018-08-13T21:16:20.256Z,18.50
2018-08-13T21:18:48.278Z,18.50
2018-08-13T21:21:16.338Z,18.50
2018-08-13T21:23:44.387Z,18.50
2018-08-13T21:26:12.447Z,18.50
2018-08-13T21:28:40.479Z,18.40
2018-08-13T21:31:08.532Z,18.50
2018-08-13T21:33:36.554Z,18.50
2018-08-13T21:36:04.622Z,18.40
2018-08-13T21:38:32.664Z,18.50
2018-08-13T21:41:00.707Z,18.40
2018-08-13T21:43:28.740Z,18.50
2018-08-13T21:45:56.781Z,18.50
2018-08-13T21:48:24.831Z,18.50
2018-08-13T21:50:52.861Z,18.60
2018-08-13T21:53:20.895Z,18.50
2018-08-13T21:55:49.038Z,18.50
2018-08-13T21:58:17.069Z,18.40
2018-08-13T22:00:50.426Z,18.40
2018-08-13T22:03:18.466Z,18.40
2018-08-13T22:05:46.489Z,18.40
2018-08-13T22:08:14.601Z,18.30
2018-08-13T22:10:42.648Z,18.30
2018-08-13T22:13:10.691Z,18.20
2018-08-13T22:15:38.808Z,18.20
2018-08-13T22:18:08.118Z,18.10
2018-08-13T22:20:36.685Z,18.10
2018-08-13T22:23:05.897Z,18.10
2018-08-13T22:25:43.373Z,18.20
2018-08-13T22:28:12.585Z,18.20
2018-08-13T22:30:40.653Z,18.20
2018-08-13T22:33:09.739Z,18.30
2018-08-13T22:35:37.809Z,18.30
2018-08-13T22:38:06.301Z,18.40
2018-08-13T22:40:34.343Z,18.40
2018-08-13T22:43:02.476Z,18.40
2018-08-13T22:45:30.513Z,18.30
2018-08-13T22:47:58.575Z,18.20
2018-08-13T22:50:26.602Z,18.20
2018-08-13T22:52:54.710Z,18.10
2018-08-13T22:55:22.752Z,18.10
2018-08-13T22:57:50.802Z,18.10
2018-08-13T23:00:19.957Z,18.00
2018-08-13T23:02:48.748Z,18.10
2018-08-13T23:05:18.270Z,18.10
2018-08-13T23:07:46.402Z,18.10
2018-08-13T23:10:16.370Z,18.00
2018-08-13T23:12:44.680Z,18.00
2018-08-13T23:15:14.212Z,18.00
2018-08-13T23:17:42.909Z,17.90
2018-08-13T23:20:13.219Z,17.90
2018-08-13T23:22:47.322Z,17.90
2018-08-13T23:25:15.507Z,17.80
2018-08-13T23:30:18.158Z,17.90
2018-08-13T23:32:48.205Z,17.90
2018-08-13T23:35:17.103Z,17.90
2018-08-13T23:37:45.147Z,17.90
2018-08-13T23:40:13.248Z,17.90
2018-08-13T23:42:41.318Z,17.90
2018-08-13T23:45:11.323Z,17.80
2018-08-13T23:47:39.382Z,17.70
2018-08-13T23:50:09.208Z,17.70
2018-08-13T23:52:37.790Z,17.60
2018-08-13T23:55:07.006Z,17.60
2018-08-13T23:57:35.079Z,17.50
